PILOTS ONLINE: 385    ATC ONLINE: 65

Location

City Hawthorne
Country  United States
Latitude 33° 55' 22" N
Longitude 118° 20' 5" W
Elevation 66 ft
Type Medium Airport

Weather

METAR
2014/07/10 20:53
KHHR 102053Z 27009G16KT 240V300 10SM CLR 24/17 A2993 RMK AO2 SLP133 T02440167 58011
TAF
No TAF available

Runways

07/25 4956 ft / 100 ft

Outbound flights

Inbound flights


Spotted incorrect airport information? Please login with your VATSIM ID.